sensor_id;sensor_type;location;lat;lon;timestamp;P1;durP1;ratioP1;P2;durP2;ratioP2
41572;SDS011;27286;47.870;19.006;2023-04-09T00:02:13;20.30;;;16.67;;
41572;SDS011;27286;47.870;19.006;2023-04-09T00:04:39;22.33;;;17.55;;
41572;SDS011;27286;47.870;19.006;2023-04-09T00:07:05;27.10;;;17.77;;
41572;SDS011;27286;47.870;19.006;2023-04-09T00:09:30;19.00;;;16.02;;
41572;SDS011;27286;47.870;19.006;2023-04-09T00:11:56;21.02;;;15.73;;
41572;SDS011;27286;47.870;19.006;2023-04-09T00:14:22;19.60;;;16.50;;
41572;SDS011;27286;47.870;19.006;2023-04-09T00:16:48;18.48;;;13.65;;
41572;SDS011;27286;47.870;19.006;2023-04-09T00:19:13;21.95;;;16.95;;
41572;SDS011;27286;47.870;19.006;2023-04-09T00:21:38;15.75;;;12.52;;
41572;SDS011;27286;47.870;19.006;2023-04-09T00:24:04;17.75;;;13.43;;
41572;SDS011;27286;47.870;19.006;2023-04-09T00:26:30;16.73;;;12.98;;
41572;SDS011;27286;47.870;19.006;2023-04-09T00:28:55;14.75;;;11.90;;
41572;SDS011;27286;47.870;19.006;2023-04-09T00:31:21;16.60;;;13.00;;
41572;SDS011;27286;47.870;19.006;2023-04-09T00:33:46;15.00;;;11.68;;
41572;SDS011;27286;47.870;19.006;2023-04-09T00:36:11;15.07;;;12.13;;
41572;SDS011;27286;47.870;19.006;2023-04-09T00:38:37;17.73;;;13.25;;
41572;SDS011;27286;47.870;19.006;2023-04-09T00:41:02;15.88;;;12.40;;
41572;SDS011;27286;47.870;19.006;2023-04-09T00:43:28;18.65;;;12.30;;
41572;SDS011;27286;47.870;19.006;2023-04-09T00:45:53;17.25;;;14.48;;
41572;SDS011;27286;47.870;19.006;2023-04-09T00:48:19;19.50;;;12.52;;
41572;SDS011;27286;47.870;19.006;2023-04-09T00:50:45;15.05;;;13.20;;
41572;SDS011;27286;47.870;19.006;2023-04-09T00:53:11;17.05;;;12.98;;
41572;SDS011;27286;47.870;19.006;2023-04-09T00:55:38;14.65;;;11.38;;
41572;SDS011;27286;47.870;19.006;2023-04-09T00:58:04;11.98;;;10.35;;
41572;SDS011;27286;47.870;19.006;2023-04-09T01:00:30;14.95;;;11.20;;
41572;SDS011;27286;47.870;19.006;2023-04-09T01:02:56;14.65;;;11.48;;
41572;SDS011;27286;47.870;19.006;2023-04-09T01:05:27;10.88;;;9.38;;
41572;SDS011;27286;47.870;19.006;2023-04-09T01:16:25;12.38;;;10.18;;
41572;SDS011;27286;47.870;19.006;2023-04-09T01:18:55;11.73;;;10.05;;
41572;SDS011;27286;47.870;19.006;2023-04-09T01:21:30;11.52;;;9.85;;
41572;SDS011;27286;47.870;19.006;2023-04-09T01:29:32;12.68;;;10.43;;
41572;SDS011;27286;47.870;19.006;2023-04-09T01:32:03;12.13;;;9.63;;
41572;SDS011;27286;47.870;19.006;2023-04-09T01:34:31;12.05;;;10.18;;
41572;SDS011;27286;47.870;19.006;2023-04-09T01:36:58;12.90;;;10.35;;
41572;SDS011;27286;47.870;19.006;2023-04-09T01:39:26;12.63;;;10.52;;
41572;SDS011;27286;47.870;19.006;2023-04-09T01:41:52;12.18;;;10.70;;
41572;SDS011;27286;47.870;19.006;2023-04-09T01:44:20;11.23;;;10.02;;
41572;SDS011;27286;47.870;19.006;2023-04-09T01:46:47;13.68;;;10.25;;
41572;SDS011;27286;47.870;19.006;2023-04-09T01:49:14;11.30;;;9.65;;
41572;SDS011;27286;47.870;19.006;2023-04-09T01:51:41;12.20;;;10.88;;
41572;SDS011;27286;47.870;19.006;2023-04-09T01:54:07;11.27;;;9.75;;
41572;SDS011;27286;47.870;19.006;2023-04-09T01:57:06;13.18;;;9.98;;
41572;SDS011;27286;47.870;19.006;2023-04-09T01:59:25;12.70;;;9.50;;
41572;SDS011;27286;47.870;19.006;2023-04-09T02:01:53;11.52;;;9.05;;
41572;SDS011;27286;47.870;19.006;2023-04-09T02:04:33;13.52;;;9.68;;
41572;SDS011;27286;47.870;19.006;2023-04-09T02:07:05;14.02;;;9.52;;
41572;SDS011;27286;47.870;19.006;2023-04-09T02:09:38;11.73;;;9.45;;
41572;SDS011;27286;47.870;19.006;2023-04-09T02:12:05;11.98;;;10.27;;
41572;SDS011;27286;47.870;19.006;2023-04-09T02:14:34;13.13;;;10.15;;
41572;SDS011;27286;47.870;19.006;2023-04-09T02:17:02;13.25;;;9.63;;
41572;SDS011;27286;47.870;19.006;2023-04-09T02:19:40;9.88;;;8.77;;
41572;SDS011;27286;47.870;19.006;2023-04-09T02:22:07;9.68;;;8.65;;
41572;SDS011;27286;47.870;19.006;2023-04-09T02:24:34;11.48;;;8.73;;
41572;SDS011;27286;47.870;19.006;2023-04-09T02:27:00;10.27;;;9.07;;
41572;SDS011;27286;47.870;19.006;2023-04-09T02:29:26;13.40;;;10.93;;
41572;SDS011;27286;47.870;19.006;2023-04-09T02:31:51;16.85;;;13.77;;
41572;SDS011;27286;47.870;19.006;2023-04-09T02:34:17;18.60;;;15.55;;
41572;SDS011;27286;47.870;19.006;2023-04-09T02:36:43;19.98;;;15.98;;
41572;SDS011;27286;47.870;19.006;2023-04-09T02:39:08;17.90;;;16.00;;
41572;SDS011;27286;47.870;19.006;2023-04-09T02:41:34;19.33;;;15.50;;
41572;SDS011;27286;47.870;19.006;2023-04-09T02:43:59;19.02;;;16.27;;
41572;SDS011;27286;47.870;19.006;2023-04-09T02:46:25;18.45;;;15.75;;
41572;SDS011;27286;47.870;19.006;2023-04-09T02:48:50;20.00;;;16.25;;
41572;SDS011;27286;47.870;19.006;2023-04-09T02:51:16;19.08;;;14.63;;
41572;SDS011;27286;47.870;19.006;2023-04-09T02:53:41;15.75;;;13.02;;
41572;SDS011;27286;47.870;19.006;2023-04-09T02:56:06;21.63;;;14.82;;
41572;SDS011;27286;47.870;19.006;2023-04-09T02:58:32;20.08;;;14.32;;
41572;SDS011;27286;47.870;19.006;2023-04-09T03:00:57;17.10;;;14.20;;
41572;SDS011;27286;47.870;19.006;2023-04-09T03:03:23;15.25;;;11.45;;
41572;SDS011;27286;47.870;19.006;2023-04-09T03:05:48;15.68;;;12.63;;
41572;SDS011;27286;47.870;19.006;2023-04-09T03:08:14;14.23;;;11.65;;
41572;SDS011;27286;47.870;19.006;2023-04-09T03:10:40;14.70;;;11.38;;
41572;SDS011;27286;47.870;19.006;2023-04-09T03:13:05;13.25;;;11.45;;
41572;SDS011;27286;47.870;19.006;2023-04-09T03:15:30;13.45;;;11.15;;
41572;SDS011;27286;47.870;19.006;2023-04-09T03:17:56;14.05;;;11.10;;
41572;SDS011;27286;47.870;19.006;2023-04-09T03:20:21;15.77;;;12.18;;
41572;SDS011;27286;47.870;19.006;2023-04-09T03:22:46;14.52;;;12.13;;
41572;SDS011;27286;47.870;19.006;2023-04-09T03:25:12;13.52;;;10.82;;
41572;SDS011;27286;47.870;19.006;2023-04-09T03:27:37;15.07;;;11.80;;
41572;SDS011;27286;47.870;19.006;2023-04-09T03:30:03;14.98;;;11.75;;
41572;SDS011;27286;47.870;19.006;2023-04-09T03:32:28;12.98;;;11.32;;
41572;SDS011;27286;47.870;19.006;2023-04-09T03:34:54;13.27;;;10.95;;
41572;SDS011;27286;47.870;19.006;2023-04-09T03:37:19;13.45;;;10.82;;
41572;SDS011;27286;47.870;19.006;2023-04-09T03:39:45;13.68;;;10.68;;
41572;SDS011;27286;47.870;19.006;2023-04-09T03:42:10;11.32;;;9.23;;
41572;SDS011;27286;47.870;19.006;2023-04-09T03:44:36;13.77;;;9.32;;
41572;SDS011;27286;47.870;19.006;2023-04-09T03:47:01;11.60;;;9.50;;
41572;SDS011;27286;47.870;19.006;2023-04-09T03:49:27;11.30;;;9.77;;
41572;SDS011;27286;47.870;19.006;2023-04-09T03:51:52;11.75;;;9.80;;
41572;SDS011;27286;47.870;19.006;2023-04-09T03:54:18;11.00;;;8.63;;
41572;SDS011;27286;47.870;19.006;2023-04-09T03:56:43;11.10;;;8.90;;
41572;SDS011;27286;47.870;19.006;2023-04-09T03:59:09;11.05;;;8.73;;
41572;SDS011;27286;47.870;19.006;2023-04-09T04:01:34;11.45;;;9.50;;
41572;SDS011;27286;47.870;19.006;2023-04-09T04:04:00;9.20;;;8.02;;
41572;SDS011;27286;47.870;19.006;2023-04-09T04:06:25;10.30;;;8.50;;
41572;SDS011;27286;47.870;19.006;2023-04-09T04:08:51;24.13;;;8.07;;
41572;SDS011;27286;47.870;19.006;2023-04-09T04:11:17;9.80;;;8.40;;
41572;SDS011;27286;47.870;19.006;2023-04-09T04:13:42;11.82;;;10.55;;
41572;SDS011;27286;47.870;19.006;2023-04-09T04:16:08;17.48;;;14.45;;
41572;SDS011;27286;47.870;19.006;2023-04-09T04:18:34;21.25;;;14.77;;
41572;SDS011;27286;47.870;19.006;2023-04-09T04:21:00;16.92;;;14.93;;
41572;SDS011;27286;47.870;19.006;2023-04-09T04:23:26;18.20;;;15.27;;
41572;SDS011;27286;47.870;19.006;2023-04-09T04:25:51;20.17;;;16.23;;
41572;SDS011;27286;47.870;19.006;2023-04-09T04:28:21;21.83;;;16.85;;
41572;SDS011;27286;47.870;19.006;2023-04-09T04:30:46;37.67;;;18.42;;
41572;SDS011;27286;47.870;19.006;2023-04-09T04:33:11;19.58;;;17.20;;
41572;SDS011;27286;47.870;19.006;2023-04-09T04:35:37;23.58;;;19.00;;
41572;SDS011;27286;47.870;19.006;2023-04-09T04:38:02;25.83;;;20.30;;
41572;SDS011;27286;47.870;19.006;2023-04-09T04:40:27;30.70;;;24.92;;
41572;SDS011;27286;47.870;19.006;2023-04-09T04:42:53;80.55;;;40.63;;
41572;SDS011;27286;47.870;19.006;2023-04-09T04:45:18;54.92;;;32.40;;
41572;SDS011;27286;47.870;19.006;2023-04-09T04:47:44;31.70;;;21.17;;
41572;SDS011;27286;47.870;19.006;2023-04-09T04:50:09;19.77;;;15.73;;
41572;SDS011;27286;47.870;19.006;2023-04-09T04:52:35;16.75;;;14.60;;
41572;SDS011;27286;47.870;19.006;2023-04-09T04:55:01;16.08;;;13.57;;
41572;SDS011;27286;47.870;19.006;2023-04-09T04:57:26;16.33;;;13.05;;
41572;SDS011;27286;47.870;19.006;2023-04-09T04:59:52;16.42;;;13.77;;
41572;SDS011;27286;47.870;19.006;2023-04-09T05:02:17;16.52;;;13.55;;
41572;SDS011;27286;47.870;19.006;2023-04-09T05:04:43;15.85;;;13.02;;
41572;SDS011;27286;47.870;19.006;2023-04-09T05:07:08;16.27;;;13.50;;
41572;SDS011;27286;47.870;19.006;2023-04-09T05:09:33;17.88;;;14.95;;
41572;SDS011;27286;47.870;19.006;2023-04-09T05:11:59;16.17;;;13.57;;
41572;SDS011;27286;47.870;19.006;2023-04-09T05:14:25;14.65;;;12.93;;
41572;SDS011;27286;47.870;19.006;2023-04-09T05:16:50;14.75;;;13.18;;
41572;SDS011;27286;47.870;19.006;2023-04-09T05:19:16;15.05;;;12.63;;
41572;SDS011;27286;47.870;19.006;2023-04-09T05:21:41;12.98;;;11.60;;
41572;SDS011;27286;47.870;19.006;2023-04-09T05:24:07;15.93;;;14.23;;
41572;SDS011;27286;47.870;19.006;2023-04-09T05:26:32;20.67;;;16.02;;
41572;SDS011;27286;47.870;19.006;2023-04-09T05:28:57;23.08;;;16.73;;
41572;SDS011;27286;47.870;19.006;2023-04-09T05:31:23;23.85;;;16.20;;
41572;SDS011;27286;47.870;19.006;2023-04-09T05:33:48;25.58;;;19.35;;
41572;SDS011;27286;47.870;19.006;2023-04-09T05:36:15;28.98;;;23.10;;
41572;SDS011;27286;47.870;19.006;2023-04-09T05:38:41;31.98;;;23.92;;
41572;SDS011;27286;47.870;19.006;2023-04-09T05:41:07;34.33;;;25.63;;
41572;SDS011;27286;47.870;19.006;2023-04-09T05:43:33;28.35;;;22.10;;
41572;SDS011;27286;47.870;19.006;2023-04-09T05:45:58;32.08;;;23.65;;
41572;SDS011;27286;47.870;19.006;2023-04-09T05:48:24;32.58;;;24.83;;
41572;SDS011;27286;47.870;19.006;2023-04-09T05:50:49;30.67;;;23.58;;
41572;SDS011;27286;47.870;19.006;2023-04-09T05:53:18;37.15;;;25.83;;
41572;SDS011;27286;47.870;19.006;2023-04-09T05:55:44;29.02;;;23.63;;
41572;SDS011;27286;47.870;19.006;2023-04-09T05:58:10;33.05;;;25.02;;
41572;SDS011;27286;47.870;19.006;2023-04-09T06:00:36;31.00;;;24.83;;
41572;SDS011;27286;47.870;19.006;2023-04-09T06:03:02;30.17;;;23.63;;
41572;SDS011;27286;47.870;19.006;2023-04-09T06:05:28;25.60;;;19.35;;
41572;SDS011;27286;47.870;19.006;2023-04-09T06:07:53;15.07;;;12.27;;
41572;SDS011;27286;47.870;19.006;2023-04-09T06:10:19;11.35;;;9.75;;
41572;SDS011;27286;47.870;19.006;2023-04-09T06:12:44;10.75;;;9.63;;
41572;SDS011;27286;47.870;19.006;2023-04-09T06:15:10;10.57;;;8.70;;
41572;SDS011;27286;47.870;19.006;2023-04-09T06:17:35;11.80;;;9.25;;
41572;SDS011;27286;47.870;19.006;2023-04-09T06:20:01;10.30;;;8.45;;
41572;SDS011;27286;47.870;19.006;2023-04-09T06:22:26;9.73;;;7.85;;
41572;SDS011;27286;47.870;19.006;2023-04-09T06:24:52;9.70;;;7.47;;
41572;SDS011;27286;47.870;19.006;2023-04-09T06:27:17;9.52;;;8.25;;
41572;SDS011;27286;47.870;19.006;2023-04-09T06:29:43;9.65;;;8.52;;
41572;SDS011;27286;47.870;19.006;2023-04-09T06:32:08;8.70;;;7.40;;
41572;SDS011;27286;47.870;19.006;2023-04-09T06:34:34;13.45;;;7.60;;
41572;SDS011;27286;47.870;19.006;2023-04-09T06:36:59;8.70;;;7.47;;
41572;SDS011;27286;47.870;19.006;2023-04-09T06:39:25;8.18;;;6.97;;
41572;SDS011;27286;47.870;19.006;2023-04-09T06:41:51;9.48;;;6.68;;
41572;SDS011;27286;47.870;19.006;2023-04-09T06:44:17;8.77;;;6.57;;
41572;SDS011;27286;47.870;19.006;2023-04-09T06:46:43;7.72;;;6.30;;
41572;SDS011;27286;47.870;19.006;2023-04-09T06:49:10;7.93;;;7.13;;
41572;SDS011;27286;47.870;19.006;2023-04-09T06:51:35;9.00;;;7.38;;
41572;SDS011;27286;47.870;19.006;2023-04-09T06:54:01;7.85;;;6.30;;
41572;SDS011;27286;47.870;19.006;2023-04-09T06:56:26;7.82;;;6.25;;
41572;SDS011;27286;47.870;19.006;2023-04-09T06:58:51;7.95;;;6.68;;
41572;SDS011;27286;47.870;19.006;2023-04-09T07:01:17;8.70;;;6.80;;
41572;SDS011;27286;47.870;19.006;2023-04-09T07:03:42;9.00;;;7.47;;
41572;SDS011;27286;47.870;19.006;2023-04-09T07:06:08;9.70;;;7.28;;
41572;SDS011;27286;47.870;19.006;2023-04-09T07:08:34;8.63;;;7.50;;
41572;SDS011;27286;47.870;19.006;2023-04-09T07:10:59;9.65;;;8.02;;
41572;SDS011;27286;47.870;19.006;2023-04-09T07:13:25;7.63;;;6.82;;
41572;SDS011;27286;47.870;19.006;2023-04-09T07:15:51;9.57;;;7.50;;
41572;SDS011;27286;47.870;19.006;2023-04-09T07:18:16;12.27;;;7.85;;
41572;SDS011;27286;47.870;19.006;2023-04-09T07:20:41;9.75;;;6.97;;
41572;SDS011;27286;47.870;19.006;2023-04-09T07:23:07;9.88;;;7.82;;
41572;SDS011;27286;47.870;19.006;2023-04-09T07:25:32;9.98;;;7.70;;
41572;SDS011;27286;47.870;19.006;2023-04-09T07:27:58;9.15;;;8.23;;
41572;SDS011;27286;47.870;19.006;2023-04-09T07:30:23;8.57;;;7.18;;
41572;SDS011;27286;47.870;19.006;2023-04-09T07:32:49;9.02;;;7.50;;
41572;SDS011;27286;47.870;19.006;2023-04-09T07:35:15;7.82;;;6.72;;
41572;SDS011;27286;47.870;19.006;2023-04-09T07:37:42;8.65;;;7.75;;
41572;SDS011;27286;47.870;19.006;2023-04-09T07:40:08;9.25;;;7.65;;
41572;SDS011;27286;47.870;19.006;2023-04-09T07:42:35;18.23;;;7.60;;
41572;SDS011;27286;47.870;19.006;2023-04-09T07:45:02;9.40;;;7.85;;
41572;SDS011;27286;47.870;19.006;2023-04-09T07:47:27;12.68;;;7.10;;
41572;SDS011;27286;47.870;19.006;2023-04-09T07:49:53;9.68;;;7.90;;
41572;SDS011;27286;47.870;19.006;2023-04-09T07:52:18;10.00;;;7.82;;
41572;SDS011;27286;47.870;19.006;2023-04-09T07:54:44;9.73;;;7.50;;
41572;SDS011;27286;47.870;19.006;2023-04-09T07:57:09;8.93;;;7.82;;
41572;SDS011;27286;47.870;19.006;2023-04-09T07:59:35;20.45;;;8.80;;
41572;SDS011;27286;47.870;19.006;2023-04-09T08:02:00;8.32;;;7.43;;
41572;SDS011;27286;47.870;19.006;2023-04-09T08:04:26;11.73;;;9.32;;
41572;SDS011;27286;47.870;19.006;2023-04-09T08:06:51;15.40;;;8.65;;
41572;SDS011;27286;47.870;19.006;2023-04-09T08:09:17;9.63;;;8.32;;
41572;SDS011;27286;47.870;19.006;2023-04-09T08:11:46;9.50;;;8.10;;
41572;SDS011;27286;47.870;19.006;2023-04-09T08:14:13;9.18;;;8.07;;
41572;SDS011;27286;47.870;19.006;2023-04-09T08:16:39;10.15;;;7.75;;
41572;SDS011;27286;47.870;19.006;2023-04-09T08:19:07;10.55;;;8.57;;
41572;SDS011;27286;47.870;19.006;2023-04-09T08:21:35;10.77;;;7.93;;
41572;SDS011;27286;47.870;19.006;2023-04-09T08:24:07;11.60;;;9.18;;
41572;SDS011;27286;47.870;19.006;2023-04-09T08:26:35;10.93;;;8.00;;
41572;SDS011;27286;47.870;19.006;2023-04-09T08:29:01;10.43;;;7.70;;
41572;SDS011;27286;47.870;19.006;2023-04-09T08:31:26;9.80;;;7.70;;
41572;SDS011;27286;47.870;19.006;2023-04-09T08:33:52;9.35;;;7.22;;
41572;SDS011;27286;47.870;19.006;2023-04-09T08:36:17;8.95;;;7.63;;
41572;SDS011;27286;47.870;19.006;2023-04-09T08:38:43;13.10;;;7.97;;
41572;SDS011;27286;47.870;19.006;2023-04-09T08:41:16;10.90;;;7.97;;
41572;SDS011;27286;47.870;19.006;2023-04-09T08:43:46;10.02;;;8.18;;
41572;SDS011;27286;47.870;19.006;2023-04-09T08:46:16;10.23;;;8.45;;
41572;SDS011;27286;47.870;19.006;2023-04-09T08:48:45;10.60;;;8.15;;
41572;SDS011;27286;47.870;19.006;2023-04-09T08:51:12;9.63;;;7.93;;
41572;SDS011;27286;47.870;19.006;2023-04-09T08:53:44;11.25;;;8.27;;
41572;SDS011;27286;47.870;19.006;2023-04-09T08:56:17;9.05;;;7.38;;
41572;SDS011;27286;47.870;19.006;2023-04-09T08:58:44;10.93;;;7.72;;
41572;SDS011;27286;47.870;19.006;2023-04-09T09:01:24;28.88;;;9.48;;
41572;SDS011;27286;47.870;19.006;2023-04-09T09:03:54;12.02;;;7.82;;
41572;SDS011;27286;47.870;19.006;2023-04-09T09:06:30;12.70;;;7.78;;
41572;SDS011;27286;47.870;19.006;2023-04-09T09:11:36;9.18;;;7.72;;
41572;SDS011;27286;47.870;19.006;2023-04-09T09:14:06;10.82;;;8.50;;
41572;SDS011;27286;47.870;19.006;2023-04-09T09:16:33;9.68;;;8.30;;
41572;SDS011;27286;47.870;19.006;2023-04-09T09:19:03;8.45;;;7.25;;
41572;SDS011;27286;47.870;19.006;2023-04-09T09:21:29;11.02;;;7.93;;
41572;SDS011;27286;47.870;19.006;2023-04-09T09:23:55;8.35;;;7.38;;
41572;SDS011;27286;47.870;19.006;2023-04-09T09:26:22;7.90;;;6.90;;
41572;SDS011;27286;47.870;19.006;2023-04-09T09:28:52;8.27;;;6.82;;
41572;SDS011;27286;47.870;19.006;2023-04-09T09:31:19;9.90;;;8.45;;
41572;SDS011;27286;47.870;19.006;2023-04-09T09:33:46;10.70;;;8.00;;
41572;SDS011;27286;47.870;19.006;2023-04-09T09:36:12;9.65;;;7.47;;
41572;SDS011;27286;47.870;19.006;2023-04-09T09:38:56;10.30;;;7.80;;
41572;SDS011;27286;47.870;19.006;2023-04-09T09:41:22;7.75;;;6.75;;
41572;SDS011;27286;47.870;19.006;2023-04-09T09:43:49;9.43;;;8.07;;
41572;SDS011;27286;47.870;19.006;2023-04-09T09:46:15;8.70;;;7.38;;
41572;SDS011;27286;47.870;19.006;2023-04-09T09:48:41;16.40;;;8.30;;
41572;SDS011;27286;47.870;19.006;2023-04-09T09:51:08;11.52;;;7.85;;
41572;SDS011;27286;47.870;19.006;2023-04-09T09:53:35;22.80;;;8.43;;
41572;SDS011;27286;47.870;19.006;2023-04-09T09:56:03;9.25;;;6.97;;
41572;SDS011;27286;47.870;19.006;2023-04-09T09:58:36;9.10;;;7.50;;
41572;SDS011;27286;47.870;19.006;2023-04-09T10:01:10;12.32;;;10.07;;
41572;SDS011;27286;47.870;19.006;2023-04-09T10:03:38;10.27;;;8.05;;
41572;SDS011;27286;47.870;19.006;2023-04-09T10:06:07;10.13;;;8.02;;
41572;SDS011;27286;47.870;19.006;2023-04-09T10:08:33;8.98;;;7.93;;
41572;SDS011;27286;47.870;19.006;2023-04-09T10:11:02;10.50;;;7.43;;
41572;SDS011;27286;47.870;19.006;2023-04-09T10:13:34;10.95;;;8.25;;
41572;SDS011;27286;47.870;19.006;2023-04-09T10:16:03;9.48;;;7.78;;
41572;SDS011;27286;47.870;19.006;2023-04-09T10:18:29;9.27;;;7.05;;
41572;SDS011;27286;47.870;19.006;2023-04-09T10:20:58;8.15;;;7.07;;
41572;SDS011;27286;47.870;19.006;2023-04-09T10:23:38;8.55;;;7.38;;
41572;SDS011;27286;47.870;19.006;2023-04-09T10:26:06;10.00;;;8.53;;
41572;SDS011;27286;47.870;19.006;2023-04-09T10:28:32;9.60;;;8.10;;
41572;SDS011;27286;47.870;19.006;2023-04-09T10:30:58;9.77;;;7.68;;
41572;SDS011;27286;47.870;19.006;2023-04-09T10:33:24;9.00;;;7.93;;
41572;SDS011;27286;47.870;19.006;2023-04-09T10:35:58;10.60;;;7.75;;
41572;SDS011;27286;47.870;19.006;2023-04-09T10:41:11;8.45;;;6.95;;
41572;SDS011;27286;47.870;19.006;2023-04-09T10:43:41;7.57;;;6.72;;
41572;SDS011;27286;47.870;19.006;2023-04-09T10:46:08;8.38;;;7.47;;
41572;SDS011;27286;47.870;19.006;2023-04-09T10:49:11;8.40;;;7.05;;
41572;SDS011;27286;47.870;19.006;2023-04-09T10:51:39;8.60;;;6.93;;
41572;SDS011;27286;47.870;19.006;2023-04-09T10:54:25;10.63;;;7.63;;
41572;SDS011;27286;47.870;19.006;2023-04-09T10:59:34;9.07;;;7.07;;
41572;SDS011;27286;47.870;19.006;2023-04-09T11:02:00;7.05;;;6.35;;
41572;SDS011;27286;47.870;19.006;2023-04-09T11:04:33;8.10;;;6.53;;
41572;SDS011;27286;47.870;19.006;2023-04-09T11:07:06;7.80;;;6.55;;
41572;SDS011;27286;47.870;19.006;2023-04-09T11:09:33;8.95;;;7.15;;
41572;SDS011;27286;47.870;19.006;2023-04-09T11:11:59;8.52;;;6.95;;
41572;SDS011;27286;47.870;19.006;2023-04-09T11:14:25;8.65;;;6.70;;
41572;SDS011;27286;47.870;19.006;2023-04-09T11:16:51;8.90;;;6.95;;
41572;SDS011;27286;47.870;19.006;2023-04-09T11:19:17;36.83;;;33.00;;
41572;SDS011;27286;47.870;19.006;2023-04-09T11:21:44;7.68;;;6.90;;
41572;SDS011;27286;47.870;19.006;2023-04-09T11:24:13;8.63;;;6.70;;
41572;SDS011;27286;47.870;19.006;2023-04-09T11:26:39;8.20;;;6.47;;
41572;SDS011;27286;47.870;19.006;2023-04-09T11:29:08;7.78;;;6.35;;
41572;SDS011;27286;47.870;19.006;2023-04-09T11:31:34;7.00;;;5.53;;
41572;SDS011;27286;47.870;19.006;2023-04-09T11:34:00;7.25;;;6.50;;
41572;SDS011;27286;47.870;19.006;2023-04-09T11:36:26;7.95;;;6.40;;
41572;SDS011;27286;47.870;19.006;2023-04-09T11:38:52;7.13;;;6.43;;
41572;SDS011;27286;47.870;19.006;2023-04-09T11:41:34;8.15;;;6.57;;
41572;SDS011;27286;47.870;19.006;2023-04-09T11:44:01;6.63;;;5.85;;
41572;SDS011;27286;47.870;19.006;2023-04-09T11:46:33;10.55;;;9.00;;
41572;SDS011;27286;47.870;19.006;2023-04-09T11:48:59;7.57;;;6.20;;
41572;SDS011;27286;47.870;19.006;2023-04-09T11:51:26;7.60;;;6.53;;
41572;SDS011;27286;47.870;19.006;2023-04-09T11:53:54;7.60;;;6.47;;
41572;SDS011;27286;47.870;19.006;2023-04-09T11:56:20;7.85;;;6.20;;
41572;SDS011;27286;47.870;19.006;2023-04-09T11:58:46;8.18;;;6.70;;
41572;SDS011;27286;47.870;19.006;2023-04-09T12:01:12;8.50;;;6.68;;
41572;SDS011;27286;47.870;19.006;2023-04-09T12:03:38;7.00;;;6.30;;
41572;SDS011;27286;47.870;19.006;2023-04-09T12:06:04;10.63;;;8.88;;
41572;SDS011;27286;47.870;19.006;2023-04-09T12:08:32;9.38;;;6.65;;
41572;SDS011;27286;47.870;19.006;2023-04-09T12:11:13;8.52;;;7.20;;
41572;SDS011;27286;47.870;19.006;2023-04-09T12:13:40;8.38;;;7.18;;
41572;SDS011;27286;47.870;19.006;2023-04-09T12:16:08;8.30;;;6.90;;
41572;SDS011;27286;47.870;19.006;2023-04-09T12:18:35;9.02;;;7.75;;
41572;SDS011;27286;47.870;19.006;2023-04-09T12:21:01;9.55;;;8.20;;
41572;SDS011;27286;47.870;19.006;2023-04-09T12:23:27;9.93;;;7.63;;
41572;SDS011;27286;47.870;19.006;2023-04-09T12:25:52;9.25;;;7.60;;
41572;SDS011;27286;47.870;19.006;2023-04-09T12:28:19;9.32;;;8.15;;
41572;SDS011;27286;47.870;19.006;2023-04-09T12:30:45;8.15;;;7.03;;
41572;SDS011;27286;47.870;19.006;2023-04-09T12:33:12;9.23;;;8.10;;
41572;SDS011;27286;47.870;19.006;2023-04-09T12:35:37;9.98;;;8.73;;
41572;SDS011;27286;47.870;19.006;2023-04-09T12:38:03;8.27;;;7.47;;
41572;SDS011;27286;47.870;19.006;2023-04-09T12:40:29;11.60;;;8.40;;
41572;SDS011;27286;47.870;19.006;2023-04-09T12:42:54;8.60;;;7.45;;
41572;SDS011;27286;47.870;19.006;2023-04-09T12:45:20;8.60;;;7.70;;
41572;SDS011;27286;47.870;19.006;2023-04-09T12:47:46;9.63;;;8.25;;
41572;SDS011;27286;47.870;19.006;2023-04-09T12:50:12;10.25;;;8.00;;
41572;SDS011;27286;47.870;19.006;2023-04-09T12:52:39;7.85;;;6.40;;
41572;SDS011;27286;47.870;19.006;2023-04-09T12:55:05;8.57;;;7.32;;
41572;SDS011;27286;47.870;19.006;2023-04-09T12:57:31;9.18;;;8.02;;
41572;SDS011;27286;47.870;19.006;2023-04-09T12:59:57;9.10;;;8.05;;
41572;SDS011;27286;47.870;19.006;2023-04-09T13:02:23;7.68;;;6.90;;
41572;SDS011;27286;47.870;19.006;2023-04-09T13:04:48;8.05;;;7.28;;
41572;SDS011;27286;47.870;19.006;2023-04-09T13:07:15;7.85;;;6.90;;
41572;SDS011;27286;47.870;19.006;2023-04-09T13:09:44;8.02;;;7.25;;
41572;SDS011;27286;47.870;19.006;2023-04-09T13:12:10;8.00;;;7.20;;
41572;SDS011;27286;47.870;19.006;2023-04-09T13:14:39;18.17;;;15.70;;
41572;SDS011;27286;47.870;19.006;2023-04-09T13:17:05;9.18;;;8.13;;
41572;SDS011;27286;47.870;19.006;2023-04-09T13:19:31;13.15;;;8.57;;
41572;SDS011;27286;47.870;19.006;2023-04-09T13:21:56;9.80;;;6.95;;
41572;SDS011;27286;47.870;19.006;2023-04-09T13:24:22;9.82;;;8.00;;
41572;SDS011;27286;47.870;19.006;2023-04-09T13:26:47;8.52;;;7.30;;
41572;SDS011;27286;47.870;19.006;2023-04-09T13:29:13;11.93;;;8.45;;
41572;SDS011;27286;47.870;19.006;2023-04-09T13:31:38;7.78;;;6.97;;
41572;SDS011;27286;47.870;19.006;2023-04-09T13:34:03;8.30;;;6.70;;
41572;SDS011;27286;47.870;19.006;2023-04-09T13:36:30;8.43;;;7.00;;
41572;SDS011;27286;47.870;19.006;2023-04-09T13:38:56;7.05;;;5.75;;
41572;SDS011;27286;47.870;19.006;2023-04-09T13:41:30;8.07;;;7.18;;
41572;SDS011;27286;47.870;19.006;2023-04-09T13:43:56;6.43;;;5.63;;
41572;SDS011;27286;47.870;19.006;2023-04-09T13:46:22;9.20;;;6.60;;
41572;SDS011;27286;47.870;19.006;2023-04-09T13:48:47;7.22;;;6.20;;
41572;SDS011;27286;47.870;19.006;2023-04-09T13:51:12;8.88;;;7.68;;
41572;SDS011;27286;47.870;19.006;2023-04-09T13:53:38;10.43;;;7.53;;
41572;SDS011;27286;47.870;19.006;2023-04-09T13:56:03;11.82;;;9.73;;
41572;SDS011;27286;47.870;19.006;2023-04-09T13:58:29;10.05;;;8.50;;
41572;SDS011;27286;47.870;19.006;2023-04-09T14:00:55;7.13;;;6.40;;
41572;SDS011;27286;47.870;19.006;2023-04-09T14:03:21;9.25;;;6.88;;
41572;SDS011;27286;47.870;19.006;2023-04-09T14:05:46;7.68;;;6.63;;
41572;SDS011;27286;47.870;19.006;2023-04-09T14:08:12;6.88;;;6.13;;
41572;SDS011;27286;47.870;19.006;2023-04-09T14:10:37;7.82;;;5.95;;
41572;SDS011;27286;47.870;19.006;2023-04-09T14:13:03;36.65;;;28.73;;
41572;SDS011;27286;47.870;19.006;2023-04-09T14:15:30;10.25;;;7.97;;
41572;SDS011;27286;47.870;19.006;2023-04-09T14:17:56;9.45;;;6.93;;
41572;SDS011;27286;47.870;19.006;2023-04-09T14:20:21;8.45;;;7.28;;
41572;SDS011;27286;47.870;19.006;2023-04-09T14:22:48;8.00;;;6.13;;
41572;SDS011;27286;47.870;19.006;2023-04-09T14:25:14;7.95;;;6.65;;
41572;SDS011;27286;47.870;19.006;2023-04-09T14:27:40;7.15;;;6.10;;
41572;SDS011;27286;47.870;19.006;2023-04-09T14:30:06;9.48;;;7.13;;
41572;SDS011;27286;47.870;19.006;2023-04-09T14:32:33;8.23;;;7.15;;
41572;SDS011;27286;47.870;19.006;2023-04-09T14:34:58;11.02;;;9.93;;
41572;SDS011;27286;47.870;19.006;2023-04-09T14:37:23;10.70;;;7.75;;
41572;SDS011;27286;47.870;19.006;2023-04-09T14:39:49;10.25;;;7.20;;
41572;SDS011;27286;47.870;19.006;2023-04-09T14:42:14;10.40;;;8.20;;
41572;SDS011;27286;47.870;19.006;2023-04-09T14:44:40;9.18;;;7.07;;